»·PEaware :: AAL491 KPHX-KSFO

AAL491 :: KPHX-KSFO

FLIGHT INFORMATION

Flight Status: Arrived
Operator:
American Airlines
More flights by this operator :: More flights under this callsign
Pilot: Jim M. (18055)
Aircraft: BOEING 777-200
(B772)
More flights by this aircraft type
Origin: KPHX Phoenix Sky Harbor Intl
United States
Destination: KSFO San Francisco Intl
United States
More flights between these airports :: More routes between these airports
Route: KEENS2 HRRBR J212 DECAS PMD J6AVE MAKRS SERFR SERFR3
File this flight plan on PilotEdge
Remarks:
Altitude:
(Current/Filed)
36,000ft
Speed:
(Current/Filed)
450kts
Departed: 07-Nov-18 10:48 AM
Arrived: 07-Nov-18 12:25 PM
Distance/Time
Traveled:
565nm/1:36
Distance/Time
To Go:
Arrived

Flight Plot

Page will automatically refresh every two minutes.


Map Options




Map Legend


Flown Route
Filed Route
Departure Airport
Arrival Airport
Navaid (VOR, NDB)
Fix

Horizontal Profiles

Position Reports

Time Latitude Longitude Heading Altitude Ground
Speed
07-Nov-18 10:05 33.438141 -111.993741 225 1148ft 0kts
07-Nov-18 10:06 33.438141 -111.993741 225 1148ft 0kts
07-Nov-18 10:07 33.438141 -111.993741 225 1148ft 0kts
07-Nov-18 10:08 33.438141 -111.993741 225 1148ft 0kts
07-Nov-18 10:09 33.438141 -111.993741 225 1148ft 0kts
07-Nov-18 10:10 33.438141 -111.993741 225 1148ft 0kts
07-Nov-18 10:11 33.438141 -111.993741 225 1148ft 0kts
07-Nov-18 10:12 33.438141 -111.993741 225 1148ft 0kts
07-Nov-18 10:13 33.438141 -111.993741 225 1148ft 0kts
07-Nov-18 10:14 33.438141 -111.993741 225 1148ft 0kts
07-Nov-18 10:15 33.438141 -111.993741 225 1148ft 0kts
07-Nov-18 10:16 33.438141 -111.993741 225 1148ft 0kts
07-Nov-18 10:17 33.438141 -111.993741 225 1148ft 0kts
07-Nov-18 10:18 33.438141 -111.993741 225 1148ft 0kts
07-Nov-18 10:19 33.438141 -111.993741 225 1148ft 0kts
07-Nov-18 10:20 33.438141 -111.993741 225 1148ft 0kts
07-Nov-18 10:21 33.438141 -111.993741 225 1148ft 0kts
07-Nov-18 10:22 33.438141 -111.993741 225 1148ft 0kts
07-Nov-18 10:23 33.438141 -111.993741 225 1148ft 0kts
07-Nov-18 10:24 33.438141 -111.993741 225 1148ft 0kts
07-Nov-18 10:25 33.438141 -111.993741 225 1148ft 0kts
07-Nov-18 10:26 33.438141 -111.993741 225 1148ft 0kts
07-Nov-18 10:27 33.438141 -111.993741 225 1148ft 0kts
07-Nov-18 10:28 33.438141 -111.993741 225 1148ft 0kts
07-Nov-18 10:29 33.438141 -111.993741 225 1148ft 0kts
07-Nov-18 10:30 33.438141 -111.993741 225 1148ft 0kts
07-Nov-18 10:31 33.438141 -111.993741 225 1148ft 0kts
07-Nov-18 10:32 33.438141 -111.993741 225 1148ft 0kts
07-Nov-18 10:33 33.438141 -111.993741 225 1148ft 0kts
07-Nov-18 10:34 33.438352 -111.993431 247 1148ft 2kts
07-Nov-18 10:35 33.438229 -111.992757 315 1148ft 0kts
07-Nov-18 10:36 33.438229 -111.992757 315 1148ft 0kts
07-Nov-18 10:37 33.438229 -111.992757 315 1148ft 0kts
07-Nov-18 10:38 33.438286 -111.992817 320 1148ft 5kts
07-Nov-18 10:39 33.439002 -111.995616 267 1148ft 16kts
07-Nov-18 10:40 33.438964 -112.000441 270 1148ft 12kts
07-Nov-18 10:41 33.438973 -112.005916 269 1148ft 17kts
07-Nov-18 10:42 33.438981 -112.011242 269 1148ft 14kts
07-Nov-18 10:43 33.438981 -112.016134 270 1148ft 13kts
07-Nov-18 10:44 33.438980 -112.020441 269 1148ft 15kts
07-Nov-18 10:45 33.438988 -112.025088 270 1148ft 12kts
07-Nov-18 10:46 33.439018 -112.028675 270 1148ft 9kts
07-Nov-18 10:47 33.439663 -112.029657 354 1148ft 0kts
07-Nov-18 10:48 33.439663 -112.029657 354 1148ft 0kts
07-Nov-18 10:49 33.439663 -112.029657 354 1148ft 0kts
07-Nov-18 10:50 33.440777 -112.029218 75 1148ft 4kts
07-Nov-18 10:51 33.441171 -111.994164 90 2139ft 193kts
07-Nov-18 10:52 33.437939 -111.923104 94 5031ft 240kts
07-Nov-18 10:53 33.411512 -111.852115 153 8080ft 254kts
07-Nov-18 10:54 33.355653 -111.885430 252 11954ft 259kts
07-Nov-18 10:55 33.360152 -111.972877 281 15299ft 296kts
07-Nov-18 10:56 33.373209 -112.082884 283 17892ft 367kts
07-Nov-18 10:57 33.392564 -112.208624 285 21519ft 397kts
07-Nov-18 10:58 33.412767 -112.342116 286 24970ft 418kts
07-Nov-18 10:59 33.433094 -112.482573 286 28097ft 439kts
07-Nov-18 11:00 33.451049 -112.630885 280 30915ft 463kts
07-Nov-18 11:01 33.452829 -112.782125 278 34537ft 445kts
07-Nov-18 11:02 33.475911 -112.926400 286 35938ft 438kts
07-Nov-18 11:03 33.502587 -113.068447 286 35935ft 438kts
07-Nov-18 11:04 33.529448 -113.210724 286 35938ft 437kts
07-Nov-18 11:05 33.555552 -113.353173 286 35931ft 437kts
07-Nov-18 11:06 33.581356 -113.495348 286 35928ft 438kts
07-Nov-18 11:07 33.608100 -113.637807 286 35923ft 438kts
07-Nov-18 11:08 33.634414 -113.780731 286 35930ft 438kts
07-Nov-18 11:09 33.660663 -113.923615 286 35926ft 439kts
07-Nov-18 11:10 33.686744 -114.066966 286 35917ft 438kts
07-Nov-18 11:11 33.712984 -114.209695 287 35915ft 438kts
07-Nov-18 11:12 33.739018 -114.352998 286 35913ft 439kts
07-Nov-18 11:13 33.764606 -114.496628 286 35908ft 439kts
07-Nov-18 11:14 33.780604 -114.642964 277 35910ft 444kts
07-Nov-18 11:15 33.787239 -114.791020 278 35910ft 444kts
07-Nov-18 11:16 33.795263 -114.938932 278 35911ft 444kts
07-Nov-18 11:17 33.803980 -115.086977 279 35914ft 443kts
07-Nov-18 11:18 33.812203 -115.235364 278 35914ft 444kts
07-Nov-18 11:19 33.819841 -115.383617 278 35915ft 444kts
07-Nov-18 11:20 33.844761 -115.525861 294 35916ft 434kts
07-Nov-18 11:21 33.889064 -115.661495 294 35918ft 434kts
07-Nov-18 11:22 33.932467 -115.797059 294 35924ft 433kts
07-Nov-18 11:23 33.976010 -115.932282 294 35934ft 433kts
07-Nov-18 11:24 34.019377 -116.068083 294 35953ft 433kts
07-Nov-18 11:25 34.062353 -116.203845 294 35968ft 433kts
07-Nov-18 11:26 34.105220 -116.339960 294 35973ft 433kts
07-Nov-18 11:27 34.147820 -116.475853 294 35981ft 433kts
07-Nov-18 11:28 34.190223 -116.611732 294 36019ft 432kts
07-Nov-18 11:29 34.232477 -116.747756 294 36059ft 432kts
07-Nov-18 11:30 34.274581 -116.883914 294 36079ft 432kts
07-Nov-18 11:31 34.316508 -117.020124 294 36052ft 432kts
07-Nov-18 11:32 34.358405 -117.156864 294 36011ft 432kts
07-Nov-18 11:33 34.400038 -117.293372 293 35973ft 432kts
07-Nov-18 11:34 34.441590 -117.430255 293 35974ft 433kts
07-Nov-18 11:35 34.483008 -117.567333 293 35973ft 434kts
07-Nov-18 11:36 34.524339 -117.704591 293 35966ft 434kts
07-Nov-18 11:37 34.565746 -117.842171 293 35968ft 434kts
07-Nov-18 11:38 34.606600 -117.980033 293 35958ft 434kts
07-Nov-18 11:39 34.660692 -118.108549 310 35957ft 428kts
07-Nov-18 11:40 34.725166 -118.199863 312 35951ft 427kts
07-Nov-18 11:41 34.814652 -118.328753 312 35961ft 427kts
07-Nov-18 11:42 34.878564 -118.420791 311 35979ft 427kts
07-Nov-18 11:43 34.967283 -118.550338 311 35996ft 426kts
07-Nov-18 11:44 35.038377 -118.666332 303 35994ft 429kts
07-Nov-18 11:45 35.086993 -118.772210 301 35989ft 429kts
07-Nov-18 11:46 35.145888 -118.899170 302 35956ft 430kts
07-Nov-18 11:47 35.215407 -119.046753 302 35923ft 429kts
07-Nov-18 11:48 35.265085 -119.152336 302 35912ft 430kts
07-Nov-18 11:49 35.334522 -119.301020 301 35912ft 430kts
07-Nov-18 11:50 35.383824 -119.407037 301 35916ft 430kts
07-Nov-18 11:51 35.443068 -119.534876 301 35924ft 431kts
07-Nov-18 11:52 35.502296 -119.662709 301 35909ft 431kts
07-Nov-18 11:53 35.561074 -119.790397 301 35915ft 431kts
07-Nov-18 11:54 35.619849 -119.919123 301 35918ft 431kts
07-Nov-18 11:55 35.657366 -120.058884 279 35937ft 441kts
07-Nov-18 11:56 35.669703 -120.208577 280 35944ft 440kts
07-Nov-18 11:57 35.688800 -120.356957 292 35944ft 435kts
07-Nov-18 11:58 35.738697 -120.492063 297 35948ft 434kts
07-Nov-18 11:59 35.790148 -120.626321 297 35949ft 434kts
07-Nov-18 12:00 35.841553 -120.761512 297 35947ft 435kts
07-Nov-18 12:01 35.892919 -120.896396 296 35945ft 436kts
07-Nov-18 12:02 35.943390 -121.029882 296 35936ft 407kts
07-Nov-18 12:03 35.993125 -121.162333 296 33844ft 439kts
07-Nov-18 12:04 36.043702 -121.298400 296 31637ft 430kts
07-Nov-18 12:05 36.117356 -121.406604 326 29730ft 410kts
07-Nov-18 12:06 36.213711 -121.478501 328 27656ft 398kts
07-Nov-18 12:07 36.306158 -121.550161 327 25648ft 386kts
07-Nov-18 12:08 36.395559 -121.620498 327 23704ft 375kts
07-Nov-18 12:09 36.482532 -121.689057 327 22057ft 358kts
07-Nov-18 12:10 36.564358 -121.753457 327 20490ft 344kts
07-Nov-18 12:11 36.644153 -121.816775 327 18755ft 335kts
07-Nov-18 12:12 36.722326 -121.878253 331 16894ft 331kts
07-Nov-18 12:13 36.809048 -121.913596 346 15138ft 325kts
07-Nov-18 12:14 36.896676 -121.937511 347 13391ft 320kts
07-Nov-18 12:15 36.982572 -121.963570 344 11684ft 315kts
07-Nov-18 12:16 37.064549 -121.996641 343 10509ft 296kts
07-Nov-18 12:17 37.139061 -122.026004 343 9898ft 266kts
07-Nov-18 12:18 37.208748 -122.053356 343 8854ft 261kts
07-Nov-18 12:19 37.278026 -122.080552 343 7698ft 263kts
07-Nov-18 12:20 37.348442 -122.108287 343 6244ft 264kts
07-Nov-18 12:21 37.413710 -122.132179 345 5608ft 226kts
07-Nov-18 12:22 37.474122 -122.152772 345 3801ft 223kts
07-Nov-18 12:23 37.531340 -122.176066 321 2884ft 199kts
07-Nov-18 12:24 37.559004 -122.232638 298 2247ft 182kts
07-Nov-18 12:25 37.581022 -122.285200 298 1321ft 155kts
07-Nov-18 12:26 37.600148 -122.330744 299 535ft 143kts
07-Nov-18 12:27 37.617167 -122.371413 298 27ft 55kts
07-Nov-18 12:28 37.618469 -122.379388 209 26ft 11kts
07-Nov-18 12:29 37.615828 -122.380200 210 26ft 8kts
07-Nov-18 12:30 37.616374 -122.381319 20 26ft 3kts
07-Nov-18 12:31 37.616509 -122.381266 15 26ft 0kts
07-Nov-18 12:32 37.616509 -122.381266 15 26ft 0kts
07-Nov-18 12:33 37.616509 -122.381266 15 26ft 0kts

Navigation Log

Ident Type
Flight plan parsing failed, navigation log unavailable